createdAt,value
2018-06-29T00:00:43.512Z,1018.93
2018-06-29T00:01:43.471Z,1018.94
2018-06-29T00:02:43.385Z,1018.93
2018-06-29T00:03:43.501Z,1018.93
2018-06-29T00:04:43.380Z,1018.91
2018-06-29T00:05:43.546Z,1018.92
2018-06-29T00:06:43.446Z,1018.9
2018-06-29T00:07:43.470Z,1018.95
2018-06-29T00:08:43.591Z,1018.93
2018-06-29T00:09:43.680Z,1018.97
2018-06-29T00:10:43.398Z,1018.95
2018-06-29T00:11:43.860Z,1018.91
2018-06-29T00:12:43.425Z,1018.92
2018-06-29T00:13:43.434Z,1018.93
2018-06-29T00:14:43.510Z,1018.92
2018-06-29T00:15:43.417Z,1018.94
2018-06-29T00:16:43.450Z,1018.94
2018-06-29T00:17:43.429Z,1018.9
2018-06-29T00:18:43.444Z,1018.9
2018-06-29T00:19:43.640Z,1018.89
2018-06-29T00:20:43.555Z,1018.94
2018-06-29T00:21:43.455Z,1018.92
2018-06-29T00:22:43.424Z,1018.93
2018-06-29T00:23:43.469Z,1018.91
2018-06-29T00:24:43.481Z,1018.93
2018-06-29T00:25:43.421Z,1018.93
2018-06-29T00:26:43.593Z,1018.92
2018-06-29T00:27:43.490Z,1018.94
2018-06-29T00:28:43.468Z,1018.91
2018-06-29T00:29:44.648Z,1018.9
2018-06-29T00:30:43.429Z,1018.93
2018-06-29T00:31:43.452Z,1018.95
2018-06-29T00:32:43.537Z,1018.96
2018-06-29T00:33:43.525Z,1018.94
2018-06-29T00:34:43.434Z,1018.96
2018-06-29T00:35:43.660Z,1018.97
2018-06-29T00:36:43.598Z,1018.96
2018-06-29T00:37:43.418Z,1018.96
2018-06-29T00:38:43.570Z,1018.94
2018-06-29T00:39:43.503Z,1018.97
2018-06-29T00:40:43.437Z,1019
2018-06-29T00:41:43.601Z,1019.02
2018-06-29T00:42:43.460Z,1018.98
2018-06-29T00:43:43.431Z,1018.98
2018-06-29T00:44:44.539Z,1018.95
2018-06-29T00:45:43.574Z,1018.95
2018-06-29T00:46:43.479Z,1018.93
2018-06-29T00:47:43.528Z,1018.97
2018-06-29T00:48:43.497Z,1018.95
2018-06-29T00:49:43.660Z,1018.95
2018-06-29T00:50:43.552Z,1018.96
2018-06-29T00:51:43.452Z,1018.92
2018-06-29T00:52:43.426Z,1018.88
2018-06-29T00:53:43.576Z,1018.91
2018-06-29T00:54:43.658Z,1018.88
2018-06-29T00:55:43.435Z,1018.87
2018-06-29T00:56:44.624Z,1018.9
2018-06-29T00:57:43.463Z,1018.87
2018-06-29T00:58:43.464Z,1018.82
2018-06-29T00:59:43.523Z,1018.89
2018-06-29T01:00:43.554Z,1018.87
2018-06-29T01:01:43.446Z,1018.88
2018-06-29T01:02:43.500Z,1018.88
2018-06-29T01:03:43.475Z,1018.93
2018-06-29T01:04:43.561Z,1018.93
2018-06-29T01:05:43.766Z,1018.98
2018-06-29T01:06:43.461Z,1018.95
2018-06-29T01:07:43.490Z,1018.92
2018-06-29T01:08:43.581Z,1018.89
2018-06-29T01:09:43.480Z,1018.95
2018-06-29T01:10:43.442Z,1019
2018-06-29T01:11:43.474Z,1018.99
2018-06-29T01:12:43.704Z,1018.96
2018-06-29T01:13:43.468Z,1018.98
2018-06-29T01:14:43.480Z,1018.97
2018-06-29T01:15:43.610Z,1018.93
2018-06-29T01:16:43.443Z,1018.93
2018-06-29T01:17:43.478Z,1018.99
2018-06-29T01:18:43.620Z,1018.97
2018-06-29T01:19:43.457Z,1018.96
2018-06-29T01:20:43.465Z,1018.97
2018-06-29T01:21:43.464Z,1018.98
2018-06-29T01:22:43.471Z,1018.97
2018-06-29T01:23:43.465Z,1018.92
2018-06-29T01:24:43.447Z,1018.93
2018-06-29T01:25:43.523Z,1018.9
2018-06-29T01:26:43.460Z,1018.91
2018-06-29T01:27:43.451Z,1018.94
2018-06-29T01:28:43.655Z,1018.95
2018-06-29T01:29:43.471Z,1018.92
2018-06-29T01:30:43.454Z,1018.92
2018-06-29T01:31:43.501Z,1018.92
2018-06-29T01:32:43.493Z,1018.93
2018-06-29T01:33:43.484Z,1018.93
2018-06-29T01:34:43.470Z,1018.92
2018-06-29T01:35:43.489Z,1018.89
2018-06-29T01:36:43.513Z,1018.87
2018-06-29T01:37:43.480Z,1018.84
2018-06-29T01:38:43.496Z,1018.81
2018-06-29T01:39:43.527Z,1018.78
2018-06-29T01:40:43.497Z,1018.77
2018-06-29T01:41:43.503Z,1018.69
2018-06-29T01:42:43.507Z,1018.7
2018-06-29T01:43:43.555Z,1018.74
2018-06-29T01:44:43.535Z,1018.72
2018-06-29T01:45:43.614Z,1018.72
2018-06-29T01:46:43.746Z,1018.71
2018-06-29T01:47:43.555Z,1018.73
2018-06-29T01:48:43.563Z,1018.72
2018-06-29T01:49:43.589Z,1018.75
2018-06-29T01:50:43.875Z,1018.76
2018-06-29T01:51:43.620Z,1018.73
2018-06-29T01:52:43.775Z,1018.77
2018-06-29T01:53:43.547Z,1018.78
2018-06-29T01:54:43.547Z,1018.71
2018-06-29T01:55:43.553Z,1018.72
2018-06-29T01:56:43.545Z,1018.72
2018-06-29T01:57:43.932Z,1018.7
2018-06-29T01:58:43.613Z,1018.71
2018-06-29T01:59:43.560Z,1018.67
2018-06-29T02:00:43.546Z,1018.68
2018-06-29T02:01:43.579Z,1018.66
2018-06-29T02:02:43.543Z,1018.61
2018-06-29T02:03:43.546Z,1018.59
2018-06-29T02:04:43.545Z,1018.54
2018-06-29T02:05:43.552Z,1018.58
2018-06-29T02:06:43.567Z,1018.52
2018-06-29T02:07:43.525Z,1018.55
2018-06-29T02:08:43.538Z,1018.54
2018-06-29T02:09:43.613Z,1018.57
2018-06-29T02:10:43.591Z,1018.62
2018-06-29T02:11:43.631Z,1018.61
2018-06-29T02:12:43.542Z,1018.62
2018-06-29T02:13:43.578Z,1018.6
2018-06-29T02:14:43.586Z,1018.59
2018-06-29T02:15:43.553Z,1018.59
2018-06-29T02:16:43.598Z,1018.58
2018-06-29T02:17:43.585Z,1018.6
2018-06-29T02:18:43.644Z,1018.59
2018-06-29T02:19:43.555Z,1018.57
2018-06-29T02:20:43.671Z,1018.57
2018-06-29T02:21:43.568Z,1018.57
2018-06-29T02:22:43.619Z,1018.59
2018-06-29T02:23:43.582Z,1018.57
2018-06-29T02:24:43.628Z,1018.57
2018-06-29T02:25:43.703Z,1018.53
2018-06-29T02:26:43.590Z,1018.52
2018-06-29T02:27:43.753Z,1018.5
2018-06-29T02:28:43.618Z,1018.51
2018-06-29T02:29:43.520Z,1018.49
2018-06-29T02:30:43.635Z,1018.46
2018-06-29T02:31:43.624Z,1018.49
2018-06-29T02:32:43.519Z,1018.46
2018-06-29T02:33:43.479Z,1018.44
2018-06-29T02:34:43.527Z,1018.47
2018-06-29T02:35:43.543Z,1018.47
2018-06-29T02:36:43.495Z,1018.46
2018-06-29T02:37:43.655Z,1018.42
2018-06-29T02:38:43.579Z,1018.43
2018-06-29T02:39:43.562Z,1018.38
2018-06-29T02:40:43.505Z,1018.4
2018-06-29T02:41:43.521Z,1018.35
2018-06-29T02:42:43.523Z,1018.32
2018-06-29T02:43:43.564Z,1018.28
2018-06-29T02:44:43.548Z,1018.27
2018-06-29T02:45:43.551Z,1018.25
2018-06-29T02:46:43.513Z,1018.24
2018-06-29T02:47:43.537Z,1018.26
2018-06-29T02:48:43.530Z,1018.23
2018-06-29T02:49:43.766Z,1018.24
2018-06-29T02:50:43.560Z,1018.26
2018-06-29T02:51:43.776Z,1018.26
2018-06-29T02:52:43.578Z,1018.24
2018-06-29T02:53:43.590Z,1018.26
2018-06-29T02:54:43.591Z,1018.24
2018-06-29T02:55:43.539Z,1018.2
2018-06-29T02:56:43.556Z,1018.22
2018-06-29T02:57:43.535Z,1018.24
2018-06-29T02:58:43.606Z,1018.27
2018-06-29T02:59:43.544Z,1018.27
2018-06-29T03:00:43.612Z,1018.32
2018-06-29T03:01:43.553Z,1018.28
2018-06-29T03:02:43.573Z,1018.3
2018-06-29T03:03:43.552Z,1018.3
2018-06-29T03:04:43.573Z,1018.26
2018-06-29T03:05:43.539Z,1018.27
2018-06-29T03:06:43.512Z,1018.27
2018-06-29T03:07:43.631Z,1018.26
2018-06-29T03:08:43.522Z,1018.27
2018-06-29T03:09:43.929Z,1018.29
2018-06-29T03:10:43.517Z,1018.3
2018-06-29T03:11:43.703Z,1018.33
2018-06-29T03:12:43.544Z,1018.32
2018-06-29T03:13:43.532Z,1018.32
2018-06-29T03:14:43.557Z,1018.33
2018-06-29T03:15:43.579Z,1018.36
2018-06-29T03:16:43.586Z,1018.32
2018-06-29T03:17:43.931Z,1018.31
2018-06-29T03:18:43.562Z,1018.31
2018-06-29T03:19:43.534Z,1018.32
2018-06-29T03:20:43.541Z,1018.3
2018-06-29T03:21:43.595Z,1018.3
2018-06-29T03:22:43.530Z,1018.28
2018-06-29T03:23:43.610Z,1018.24
2018-06-29T03:24:43.525Z,1018.26
2018-06-29T03:25:43.527Z,1018.25
2018-06-29T03:26:43.837Z,1018.28
2018-06-29T03:27:43.547Z,1018.27
2018-06-29T03:28:43.594Z,1018.3
2018-06-29T03:29:43.604Z,1018.3
2018-06-29T03:30:43.595Z,1018.29
2018-06-29T03:31:43.597Z,1018.28
2018-06-29T03:32:43.573Z,1018.27
2018-06-29T03:33:43.633Z,1018.29
2018-06-29T03:34:43.607Z,1018.29
2018-06-29T03:35:43.581Z,1018.26
2018-06-29T03:36:43.652Z,1018.25
2018-06-29T03:37:43.536Z,1018.3
2018-06-29T03:38:43.573Z,1018.31
2018-06-29T03:39:43.653Z,1018.33
2018-06-29T03:40:43.781Z,1018.3
2018-06-29T03:41:43.577Z,1018.3
2018-06-29T03:42:43.539Z,1018.27
2018-06-29T03:43:43.572Z,1018.28
2018-06-29T03:44:43.565Z,1018.27
2018-06-29T03:45:43.564Z,1018.27
2018-06-29T03:46:43.554Z,1018.27
2018-06-29T03:47:43.585Z,1018.23
2018-06-29T03:48:43.535Z,1018.29
2018-06-29T03:49:43.575Z,1018.3
2018-06-29T03:50:43.584Z,1018.31
2018-06-29T03:51:43.545Z,1018.29
2018-06-29T03:52:43.563Z,1018.32
2018-06-29T03:53:43.564Z,1018.32
2018-06-29T03:54:43.576Z,1018.31
2018-06-29T03:55:43.548Z,1018.31
2018-06-29T03:56:43.593Z,1018.3
2018-06-29T03:57:43.604Z,1018.29
2018-06-29T03:58:43.550Z,1018.3
2018-06-29T03:59:43.601Z,1018.35
2018-06-29T04:00:43.624Z,1018.29
2018-06-29T04:01:43.624Z,1018.32
2018-06-29T04:02:43.632Z,1018.32
2018-06-29T04:03:43.628Z,1018.34
2018-06-29T04:04:43.847Z,1018.34
2018-06-29T04:05:43.675Z,1018.36
2018-06-29T04:06:44.183Z,1018.42
2018-06-29T04:07:43.620Z,1018.36
2018-06-29T04:08:43.879Z,1018.35
2018-06-29T04:09:43.577Z,1018.33
2018-06-29T04:10:43.579Z,1018.31
2018-06-29T04:11:43.655Z,1018.31
2018-06-29T04:12:43.569Z,1018.29
2018-06-29T04:13:43.594Z,1018.29
2018-06-29T04:14:43.572Z,1018.27
2018-06-29T04:15:43.631Z,1018.27
2018-06-29T04:16:43.590Z,1018.31
2018-06-29T04:17:43.646Z,1018.34
2018-06-29T04:18:43.692Z,1018.29
2018-06-29T04:19:43.586Z,1018.31
2018-06-29T04:20:43.571Z,1018.37
2018-06-29T04:21:43.604Z,1018.34
2018-06-29T04:22:43.675Z,1018.36
2018-06-29T04:23:43.595Z,1018.33
2018-06-29T04:24:43.708Z,1018.34
2018-06-29T04:25:43.617Z,1018.33
2018-06-29T04:26:43.585Z,1018.33
2018-06-29T04:27:43.803Z,1018.33
2018-06-29T04:28:43.672Z,1018.34
2018-06-29T04:29:43.755Z,1018.29
2018-06-29T04:30:43.602Z,1018.35
2018-06-29T04:31:43.631Z,1018.32
2018-06-29T04:32:43.807Z,1018.33
2018-06-29T04:33:43.585Z,1018.31
2018-06-29T04:34:43.574Z,1018.29
2018-06-29T04:35:43.617Z,1018.32
2018-06-29T04:36:43.617Z,1018.31
2018-06-29T04:37:43.612Z,1018.3
2018-06-29T04:38:43.620Z,1018.31
2018-06-29T04:39:43.756Z,1018.3
2018-06-29T04:40:43.620Z,1018.32
2018-06-29T04:41:43.637Z,1018.32
2018-06-29T04:42:43.616Z,1018.32
2018-06-29T04:43:43.599Z,1018.33
2018-06-29T04:44:44.255Z,1018.29
2018-06-29T04:45:43.656Z,1018.31
2018-06-29T04:46:43.710Z,1018.26
2018-06-29T04:47:44.172Z,1018.21
2018-06-29T04:48:43.726Z,1018.24
2018-06-29T04:49:43.634Z,1018.28
2018-06-29T04:50:43.632Z,1018.28
2018-06-29T04:51:43.720Z,1018.24
2018-06-29T04:52:43.677Z,1018.22
2018-06-29T04:53:43.654Z,1018.19
2018-06-29T04:54:43.651Z,1018.2
2018-06-29T04:55:43.670Z,1018.24
2018-06-29T04:56:43.667Z,1018.25
2018-06-29T04:57:43.675Z,1018.26
2018-06-29T04:58:43.858Z,1018.3
2018-06-29T04:59:43.668Z,1018.37
2018-06-29T05:00:43.682Z,1018.4
2018-06-29T05:01:43.709Z,1018.39
2018-06-29T05:02:43.697Z,1018.36
2018-06-29T05:03:43.642Z,1018.34
2018-06-29T05:04:43.643Z,1018.37
2018-06-29T05:05:43.652Z,1018.31
2018-06-29T05:06:43.706Z,1018.41
2018-06-29T05:07:43.701Z,1018.37
2018-06-29T05:08:43.679Z,1018.38
2018-06-29T05:09:43.796Z,1018.37
2018-06-29T05:10:43.714Z,1018.36
2018-06-29T05:11:43.720Z,1018.41
2018-06-29T05:12:43.683Z,1018.38
2018-06-29T05:13:43.693Z,1018.36
2018-06-29T05:14:43.656Z,1018.4
2018-06-29T05:15:43.675Z,1018.38
2018-06-29T05:16:43.692Z,1018.34
2018-06-29T05:17:43.699Z,1018.38
2018-06-29T05:18:43.701Z,1018.39
2018-06-29T05:19:43.683Z,1018.41
2018-06-29T05:20:43.691Z,1018.38
2018-06-29T05:21:43.706Z,1018.4
2018-06-29T05:22:43.704Z,1018.42
2018-06-29T05:23:43.694Z,1018.39
2018-06-29T05:24:43.720Z,1018.39
2018-06-29T05:25:43.757Z,1018.37
2018-06-29T05:26:43.720Z,1018.41
2018-06-29T05:27:43.768Z,1018.39
2018-06-29T05:28:43.928Z,1018.39
2018-06-29T05:29:43.686Z,1018.42
2018-06-29T05:30:43.787Z,1018.42
2018-06-29T05:31:43.705Z,1018.48
2018-06-29T05:32:43.706Z,1018.44
2018-06-29T05:33:43.615Z,1018.41
2018-06-29T05:34:43.807Z,1018.44
2018-06-29T05:35:43.622Z,1018.47
2018-06-29T05:36:43.746Z,1018.47
2018-06-29T05:37:43.749Z,1018.51
2018-06-29T05:38:43.635Z,1018.48
2018-06-29T05:39:43.626Z,1018.51
2018-06-29T05:40:43.764Z,1018.47
2018-06-29T05:41:43.866Z,1018.47
2018-06-29T05:42:43.817Z,1018.49
2018-06-29T05:43:43.642Z,1018.52
2018-06-29T05:44:43.625Z,1018.56
2018-06-29T05:45:43.628Z,1018.54
2018-06-29T05:46:43.655Z,1018.6
2018-06-29T05:47:43.676Z,1018.56
2018-06-29T05:48:43.657Z,1018.57
2018-06-29T05:49:43.700Z,1018.55
2018-06-29T05:50:43.835Z,1018.57
2018-06-29T05:51:43.774Z,1018.55
2018-06-29T05:52:43.641Z,1018.55
2018-06-29T05:53:43.637Z,1018.54
2018-06-29T05:54:43.655Z,1018.54
2018-06-29T05:55:43.658Z,1018.55
2018-06-29T05:56:43.668Z,1018.54
2018-06-29T05:57:43.623Z,1018.56
2018-06-29T05:58:43.628Z,1018.57
2018-06-29T05:59:43.627Z,1018.57
2018-06-29T06:00:43.643Z,1018.55
2018-06-29T06:01:43.650Z,1018.55
2018-06-29T06:02:43.671Z,1018.56
2018-06-29T06:03:43.617Z,1018.57
2018-06-29T06:04:43.829Z,1018.54
2018-06-29T06:05:43.719Z,1018.52
2018-06-29T06:06:43.628Z,1018.5
2018-06-29T06:07:43.653Z,1018.51
2018-06-29T06:08:43.659Z,1018.54
2018-06-29T06:09:43.634Z,1018.52
2018-06-29T06:10:43.650Z,1018.53
2018-06-29T06:11:43.662Z,1018.56
2018-06-29T06:12:43.660Z,1018.54
2018-06-29T06:13:43.629Z,1018.54
2018-06-29T06:14:43.642Z,1018.57
2018-06-29T06:15:43.700Z,1018.58
2018-06-29T06:16:43.668Z,1018.57
2018-06-29T06:17:43.657Z,1018.55
2018-06-29T06:18:43.664Z,1018.52
2018-06-29T06:19:43.693Z,1018.53
2018-06-29T06:20:43.680Z,1018.53
2018-06-29T06:21:43.824Z,1018.59
2018-06-29T06:22:43.685Z,1018.59
2018-06-29T06:23:43.643Z,1018.58
2018-06-29T06:24:43.655Z,1018.57
2018-06-29T06:25:43.804Z,1018.59
2018-06-29T06:26:43.667Z,1018.59
2018-06-29T06:27:43.719Z,1018.6
2018-06-29T06:28:43.667Z,1018.57
2018-06-29T06:29:43.679Z,1018.56
2018-06-29T06:30:43.794Z,1018.55
2018-06-29T06:31:43.653Z,1018.58
2018-06-29T06:32:43.655Z,1018.53
2018-06-29T06:33:43.812Z,1018.53
2018-06-29T06:34:43.678Z,1018.48
2018-06-29T06:35:43.736Z,1018.49
2018-06-29T06:36:43.665Z,1018.59
2018-06-29T06:37:43.687Z,1018.57
2018-06-29T06:38:43.728Z,1018.58
2018-06-29T06:39:43.672Z,1018.6
2018-06-29T06:40:43.704Z,1018.67
2018-06-29T06:41:44.014Z,1018.64
2018-06-29T06:42:43.690Z,1018.65
2018-06-29T06:43:43.772Z,1018.7
2018-06-29T06:44:43.708Z,1018.79
2018-06-29T06:45:43.658Z,1018.77
2018-06-29T06:46:43.703Z,1018.8
2018-06-29T06:47:43.727Z,1018.81
2018-06-29T06:48:43.704Z,1018.8
2018-06-29T06:49:43.697Z,1018.78
2018-06-29T06:50:43.728Z,1018.8
2018-06-29T06:51:43.656Z,1018.82
2018-06-29T06:52:43.708Z,1018.82
2018-06-29T06:53:43.867Z,1018.79
2018-06-29T06:54:43.714Z,1018.77
2018-06-29T06:55:43.732Z,1018.69
2018-06-29T06:56:43.676Z,1018.68
2018-06-29T06:57:43.697Z,1018.64
2018-06-29T06:58:43.710Z,1018.65
2018-06-29T06:59:43.700Z,1018.69
2018-06-29T07:00:43.798Z,1018.63
2018-06-29T07:01:43.754Z,1018.62
2018-06-29T07:02:43.679Z,1018.61
2018-06-29T07:03:43.712Z,1018.58
2018-06-29T07:04:43.744Z,1018.52
2018-06-29T07:05:43.868Z,1018.47
2018-06-29T07:06:43.742Z,1018.46
2018-06-29T07:07:43.914Z,1018.42
2018-06-29T07:08:43.739Z,1018.34
2018-06-29T07:09:43.730Z,1018.42
2018-06-29T07:10:43.689Z,1018.44
2018-06-29T07:11:43.701Z,1018.43
2018-06-29T07:12:43.828Z,1018.45
2018-06-29T07:13:43.704Z,1018.49
2018-06-29T07:14:43.756Z,1018.51
2018-06-29T07:15:43.716Z,1018.51
2018-06-29T07:16:43.715Z,1018.51
2018-06-29T07:17:43.713Z,1018.53
2018-06-29T07:18:43.723Z,1018.58
2018-06-29T07:19:43.692Z,1018.58
2018-06-29T07:20:43.706Z,1018.56
2018-06-29T07:21:46.847Z,1018.58
2018-06-29T07:22:43.718Z,1018.56
2018-06-29T07:23:43.685Z,1018.6
2018-06-29T07:24:43.678Z,1018.57
2018-06-29T07:25:43.728Z,1018.55
2018-06-29T07:26:43.709Z,1018.55
2018-06-29T07:27:43.831Z,1018.55
2018-06-29T07:28:43.777Z,1018.57
2018-06-29T07:29:43.713Z,1018.57
2018-06-29T07:30:43.700Z,1018.55
2018-06-29T07:31:43.723Z,1018.53
2018-06-29T07:32:44.034Z,1018.53
2018-06-29T07:33:43.725Z,1018.51
2018-06-29T07:34:43.722Z,1018.51
2018-06-29T07:35:43.703Z,1018.54
2018-06-29T07:36:43.720Z,1018.56
2018-06-29T07:37:43.970Z,1018.57
2018-06-29T07:38:43.765Z,1018.5
2018-06-29T07:39:43.718Z,1018.49
2018-06-29T07:40:43.774Z,1018.45
2018-06-29T07:41:43.722Z,1018.51
2018-06-29T07:42:44.204Z,1018.52
2018-06-29T07:43:43.771Z,1018.52
2018-06-29T07:44:43.740Z,1018.51
2018-06-29T07:45:43.759Z,1018.5
2018-06-29T07:46:43.931Z,1018.5
2018-06-29T07:47:43.813Z,1018.54
2018-06-29T07:48:43.830Z,1018.54
2018-06-29T07:49:43.788Z,1018.52
2018-06-29T07:50:43.844Z,1018.51
2018-06-29T07:51:43.803Z,1018.45
2018-06-29T07:52:43.909Z,1018.46
2018-06-29T07:53:43.883Z,1018.44
2018-06-29T07:54:44.237Z,1018.43
2018-06-29T07:55:43.856Z,1018.44
2018-06-29T07:56:44.000Z,1018.44
2018-06-29T07:57:43.988Z,1018.45
2018-06-29T07:58:44.391Z,1018.43
2018-06-29T07:59:43.904Z,1018.38
2018-06-29T08:00:43.814Z,1018.38
2018-06-29T08:01:43.879Z,1018.39
2018-06-29T08:02:44.444Z,1018.38
2018-06-29T08:03:44.011Z,1018.4
2018-06-29T08:04:43.958Z,1018.38
2018-06-29T08:05:43.930Z,1018.36
2018-06-29T08:06:44.174Z,1018.37
2018-06-29T08:07:43.930Z,1018.4
2018-06-29T08:08:43.975Z,1018.37
2018-06-29T08:09:43.873Z,1018.41
2018-06-29T08:10:44.310Z,1018.48
2018-06-29T08:11:43.918Z,1018.46
2018-06-29T08:12:43.909Z,1018.48
2018-06-29T08:13:43.950Z,1018.45
2018-06-29T08:14:43.888Z,1018.48
2018-06-29T08:15:44.273Z,1018.52
2018-06-29T08:16:43.971Z,1018.51
2018-06-29T08:17:43.879Z,1018.5
2018-06-29T08:18:43.847Z,1018.53
2018-06-29T08:19:43.861Z,1018.54
2018-06-29T08:20:43.890Z,1018.5
2018-06-29T08:21:43.916Z,1018.52
2018-06-29T08:22:43.881Z,1018.49
2018-06-29T08:23:43.896Z,1018.49
2018-06-29T08:24:43.864Z,1018.45
2018-06-29T08:25:43.905Z,1018.45
2018-06-29T08:26:43.878Z,1018.4
2018-06-29T08:27:43.888Z,1018.42
2018-06-29T08:28:43.886Z,1018.42
2018-06-29T08:29:43.869Z,1018.4
2018-06-29T08:30:43.920Z,1018.39
2018-06-29T08:31:43.925Z,1018.38
2018-06-29T08:32:43.899Z,1018.38
2018-06-29T08:33:43.903Z,1018.39
2018-06-29T08:34:43.919Z,1018.4
2018-06-29T08:35:43.937Z,1018.39
2018-06-29T08:36:43.883Z,1018.41
2018-06-29T08:37:43.896Z,1018.36
2018-06-29T08:38:44.244Z,1018.4
2018-06-29T08:39:44.473Z,1018.4
2018-06-29T08:40:43.722Z,1018.37
2018-06-29T08:41:43.952Z,1018.43
2018-06-29T08:42:43.898Z,1018.41
2018-06-29T08:43:43.966Z,1018.44
2018-06-29T08:44:43.938Z,1018.4
2018-06-29T08:45:43.910Z,1018.39
2018-06-29T08:46:43.927Z,1018.38
2018-06-29T08:47:43.928Z,1018.41
2018-06-29T08:48:43.750Z,1018.36
2018-06-29T08:49:44.193Z,1018.34
2018-06-29T08:50:43.759Z,1018.33
2018-06-29T08:51:44.116Z,1018.36
2018-06-29T08:52:43.770Z,1018.32
2018-06-29T08:53:43.770Z,1018.31
2018-06-29T08:54:43.778Z,1018.31
2018-06-29T08:55:44.005Z,1018.29
2018-06-29T08:56:44.005Z,1018.27
2018-06-29T08:57:43.753Z,1018.25
2018-06-29T08:58:44.012Z,1018.28
2018-06-29T08:59:43.816Z,1018.26
2018-06-29T09:00:43.843Z,1018.27
2018-06-29T09:01:43.747Z,1018.2
2018-06-29T09:02:44.194Z,1018.25
2018-06-29T09:03:43.749Z,1018.28
2018-06-29T09:04:44.008Z,1018.27
2018-06-29T09:05:43.762Z,1018.28
2018-06-29T09:06:43.816Z,1018.22
2018-06-29T09:07:43.794Z,1018.23
2018-06-29T09:08:44.206Z,1018.23
2018-06-29T09:09:44.047Z,1018.2
2018-06-29T09:10:43.771Z,1018.2
2018-06-29T09:11:43.829Z,1018.2
2018-06-29T09:12:43.830Z,1018.2
2018-06-29T09:13:43.826Z,1018.22
2018-06-29T09:14:47.597Z,1018.16
2018-06-29T09:15:44.066Z,1018.15
2018-06-29T09:16:43.921Z,1018.18
2018-06-29T09:17:44.242Z,1018.16
2018-06-29T09:18:43.766Z,1018.13
2018-06-29T09:19:43.784Z,1018.15
2018-06-29T09:20:43.768Z,1018.08
2018-06-29T09:21:44.166Z,1018.12
2018-06-29T09:22:44.251Z,1018.14
2018-06-29T09:23:43.884Z,1018.12
2018-06-29T09:24:44.128Z,1018.09
2018-06-29T09:25:43.894Z,1018.13
2018-06-29T09:26:43.896Z,1018.01
2018-06-29T09:27:43.902Z,1018.06
2018-06-29T09:28:43.941Z,1018.02
2018-06-29T09:29:44.162Z,1018.01
2018-06-29T09:30:48.664Z,1018.03
2018-06-29T09:31:44.176Z,1017.99
2018-06-29T09:32:43.856Z,1018.01
2018-06-29T09:33:43.801Z,1018.04
2018-06-29T09:34:43.974Z,1018
2018-06-29T09:35:43.852Z,1017.99
2018-06-29T09:36:43.860Z,1018.04
2018-06-29T09:37:43.800Z,1018
2018-06-29T09:38:43.875Z,1017.96
2018-06-29T09:39:43.902Z,1017.96
2018-06-29T09:40:44.005Z,1017.93
2018-06-29T09:41:44.043Z,1017.95
2018-06-29T09:42:43.903Z,1017.89
2018-06-29T09:43:43.912Z,1017.89
2018-06-29T09:44:43.846Z,1017.88
2018-06-29T09:45:43.934Z,1017.85
2018-06-29T09:46:43.826Z,1017.83
2018-06-29T09:47:44.079Z,1017.81
2018-06-29T09:48:44.422Z,1017.84
2018-06-29T09:49:44.064Z,1017.8
2018-06-29T09:50:43.781Z,1017.78
2018-06-29T09:51:43.969Z,1017.78
2018-06-29T09:52:43.969Z,1017.79
2018-06-29T09:53:43.984Z,1017.83
2018-06-29T09:54:43.884Z,1017.76
2018-06-29T09:55:44.096Z,1017.76
2018-06-29T09:56:43.859Z,1017.77
2018-06-29T09:57:43.827Z,1017.75
2018-06-29T09:58:43.935Z,1017.72
2018-06-29T09:59:44.057Z,1017.72
2018-06-29T10:00:44.113Z,1017.66
2018-06-29T10:01:43.822Z,1017.66
2018-06-29T10:02:43.806Z,1017.62
2018-06-29T10:03:43.997Z,1017.6
2018-06-29T10:04:43.816Z,1017.62
2018-06-29T10:05:43.839Z,1017.59
2018-06-29T10:06:43.949Z,1017.55
2018-06-29T10:07:43.880Z,1017.54
2018-06-29T10:08:43.811Z,1017.49
2018-06-29T10:09:43.894Z,1017.52
2018-06-29T10:10:44.100Z,1017.53
2018-06-29T10:11:43.926Z,1017.52
2018-06-29T10:12:44.124Z,1017.53
2018-06-29T10:13:45.151Z,1017.5
2018-06-29T10:14:43.945Z,1017.52
2018-06-29T10:15:43.942Z,1017.51
2018-06-29T10:16:44.041Z,1017.44
2018-06-29T10:17:43.823Z,1017.48
2018-06-29T10:18:43.914Z,1017.46
2018-06-29T10:19:44.430Z,1017.49
2018-06-29T10:20:43.873Z,1017.47
2018-06-29T10:21:43.859Z,1017.52
2018-06-29T10:22:43.911Z,1017.44
2018-06-29T10:23:44.018Z,1017.47
2018-06-29T10:24:43.844Z,1017.45
2018-06-29T10:25:43.982Z,1017.45
2018-06-29T10:26:43.993Z,1017.46
2018-06-29T10:27:44.116Z,1017.41
2018-06-29T10:28:43.904Z,1017.44
2018-06-29T10:29:43.934Z,1017.39
2018-06-29T10:30:44.097Z,1017.38
2018-06-29T10:31:43.839Z,1017.38
2018-06-29T10:32:43.855Z,1017.42
2018-06-29T10:33:43.818Z,1017.35
2018-06-29T10:34:43.826Z,1017.38
2018-06-29T10:35:43.926Z,1017.37
2018-06-29T10:36:44.005Z,1017.34
2018-06-29T10:37:43.886Z,1017.31
2018-06-29T10:38:43.981Z,1017.32
2018-06-29T10:39:48.104Z,1017.34
2018-06-29T10:40:43.858Z,1017.3
2018-06-29T10:41:43.870Z,1017.34
2018-06-29T10:42:44.033Z,1017.31
2018-06-29T10:43:43.855Z,1017.27
2018-06-29T10:44:44.020Z,1017.29
2018-06-29T10:45:44.058Z,1017.26
2018-06-29T10:46:43.875Z,1017.3
2018-06-29T10:47:43.863Z,1017.22
2018-06-29T10:48:43.969Z,1017.21
2018-06-29T10:49:43.865Z,1017.21
2018-06-29T10:50:43.904Z,1017.21
2018-06-29T10:51:43.844Z,1017.3
2018-06-29T10:52:43.948Z,1017.22
2018-06-29T10:53:43.849Z,1017.26
2018-06-29T10:54:43.853Z,1017.25
2018-06-29T10:55:43.953Z,1017.19
2018-06-29T10:56:44.064Z,1017.19
2018-06-29T10:57:44.023Z,1017.15
2018-06-29T10:58:44.193Z,1017.14
2018-06-29T10:59:43.960Z,1017.13
2018-06-29T11:00:44.050Z,1017.13
2018-06-29T11:01:43.859Z,1017.12
2018-06-29T11:02:43.936Z,1017.11
2018-06-29T11:03:43.872Z,1017.07
2018-06-29T11:04:43.957Z,1017.06
2018-06-29T11:05:43.967Z,1017.08
2018-06-29T11:06:43.896Z,1017.07
2018-06-29T11:07:43.898Z,1017.11
2018-06-29T11:08:43.981Z,1017.07
2018-06-29T11:09:43.900Z,1017.05
2018-06-29T11:10:43.937Z,1017.05
2018-06-29T11:11:43.870Z,1017.06
2018-06-29T11:12:44.159Z,1016.98
2018-06-29T11:13:44.042Z,1016.97
2018-06-29T11:14:43.950Z,1017.02
2018-06-29T11:15:43.999Z,1016.95
2018-06-29T11:16:43.966Z,1016.94
2018-06-29T11:17:43.897Z,1016.98
2018-06-29T11:18:43.921Z,1016.92
2018-06-29T11:19:43.978Z,1016.88
2018-06-29T11:20:43.993Z,1016.88
2018-06-29T11:21:44.095Z,1016.87
2018-06-29T11:22:44.241Z,1016.85
2018-06-29T11:23:43.906Z,1016.88
2018-06-29T11:24:43.965Z,1016.89
2018-06-29T11:25:43.939Z,1016.84
2018-06-29T11:26:43.885Z,1016.88
2018-06-29T11:27:44.035Z,1016.83
2018-06-29T11:28:44.057Z,1016.87
2018-06-29T11:29:43.951Z,1016.85
2018-06-29T11:30:44.164Z,1016.81
2018-06-29T11:31:43.916Z,1016.82
2018-06-29T11:32:44.033Z,1016.79
2018-06-29T11:33:43.958Z,1016.78
2018-06-29T11:34:43.938Z,1016.75
2018-06-29T11:35:43.991Z,1016.7
2018-06-29T11:36:44.084Z,1016.7
2018-06-29T11:37:43.950Z,1016.72
2018-06-29T11:38:43.920Z,1016.72
2018-06-29T11:39:44.121Z,1016.74
2018-06-29T11:40:43.884Z,1016.68
2018-06-29T11:41:44.059Z,1016.65
2018-06-29T11:42:44.044Z,1016.62
2018-06-29T11:43:44.000Z,1016.65
2018-06-29T11:44:43.968Z,1016.64
2018-06-29T11:45:43.877Z,1016.65
2018-06-29T11:46:43.930Z,1016.63
2018-06-29T11:47:49.490Z,1016.7
2018-06-29T11:48:43.978Z,1016.68
2018-06-29T11:49:43.905Z,1016.67
2018-06-29T11:50:43.921Z,1016.66
2018-06-29T11:51:43.911Z,1016.7
2018-06-29T11:52:43.912Z,1016.67
2018-06-29T11:53:43.908Z,1016.67
2018-06-29T11:54:43.881Z,1016.65
2018-06-29T11:55:44.025Z,1016.65
2018-06-29T11:56:43.958Z,1016.61
2018-06-29T11:57:43.898Z,1016.65
2018-06-29T11:58:43.932Z,1016.64
2018-06-29T11:59:43.912Z,1016.69
2018-06-29T12:00:44.200Z,1016.62
2018-06-29T12:01:43.919Z,1016.63
2018-06-29T12:02:43.929Z,1016.63
2018-06-29T12:03:43.952Z,1016.59
2018-06-29T12:04:43.904Z,1016.59
2018-06-29T12:05:43.950Z,1016.57
2018-06-29T12:06:43.964Z,1016.53
2018-06-29T12:07:43.996Z,1016.54
2018-06-29T12:08:43.926Z,1016.54